createdAt,value
2022-10-25T00:01:46.739Z,4.40
2022-10-25T00:04:16.366Z,2.07
2022-10-25T00:06:45.522Z,4.03
2022-10-25T00:09:13.849Z,3.83
2022-10-25T00:11:43.896Z,2.43
2022-10-25T00:14:16.692Z,2.80
2022-10-25T00:16:45.195Z,2.17
2022-10-25T00:19:14.371Z,1.87
2022-10-25T00:21:43.013Z,2.37
2022-10-25T00:24:12.819Z,3.23
2022-10-25T00:26:41.766Z,3.73
2022-10-25T00:29:12.676Z,3.27
2022-10-25T00:31:41.345Z,4.87
2022-10-25T00:34:09.926Z,1.50
2022-10-25T00:36:38.289Z,4.53
2022-10-25T00:39:06.663Z,3.07
2022-10-25T00:41:36.076Z,1.97
2022-10-25T00:44:41.989Z,4.47
2022-10-25T00:47:23.255Z,1.77
2022-10-25T00:49:57.279Z,2.53
2022-10-25T00:52:27.101Z,2.07
2022-10-25T00:54:56.288Z,2.73
2022-10-25T00:57:34.019Z,3.57
2022-10-25T01:00:03.861Z,3.80
2022-10-25T01:02:34.388Z,1.43
2022-10-25T01:05:03.158Z,2.10
2022-10-25T01:07:31.539Z,1.43
2022-10-25T01:10:00.257Z,3.17
2022-10-25T01:12:28.612Z,2.07
2022-10-25T01:14:57.340Z,5.07
2022-10-25T01:17:36.270Z,5.80
2022-10-25T01:20:33.970Z,4.53
2022-10-25T01:23:16.733Z,4.00
2022-10-25T01:26:10.892Z,3.07
2022-10-25T01:28:55.401Z,2.93
2022-10-25T01:31:31.794Z,2.33
2022-10-25T01:34:06.248Z,3.50
2022-10-25T01:36:44.849Z,3.70
2022-10-25T01:39:19.150Z,1.50
2022-10-25T01:41:55.886Z,2.27
2022-10-25T01:44:34.010Z,2.63
2022-10-25T01:47:07.816Z,3.97
2022-10-25T01:49:42.761Z,3.53
2022-10-25T01:52:11.382Z,5.27
2022-10-25T01:54:39.957Z,4.10
2022-10-25T01:57:27.871Z,1.53
2022-10-25T02:00:12.680Z,1.83
2022-10-25T02:02:58.570Z,1.73
2022-10-25T02:05:30.160Z,3.33
2022-10-25T02:08:06.014Z,1.43
2022-10-25T02:10:41.286Z,2.07
2022-10-25T02:13:19.264Z,5.10
2022-10-25T02:15:57.974Z,2.00
2022-10-25T02:21:02.191Z,5.07
2022-10-25T02:23:32.320Z,3.37
2022-10-25T02:26:01.766Z,3.60
2022-10-25T02:28:31.096Z,5.10
2022-10-25T02:31:01.002Z,4.33
2022-10-25T02:33:31.327Z,2.27
2022-10-25T02:36:07.882Z,4.67
2022-10-25T02:38:36.679Z,4.40
2022-10-25T02:41:06.883Z,2.23
2022-10-25T02:43:35.453Z,3.17
2022-10-25T02:46:08.384Z,2.87
2022-10-25T02:48:38.743Z,3.00
2022-10-25T02:51:08.063Z,5.00
2022-10-25T02:53:36.748Z,1.97
2022-10-25T02:56:08.188Z,4.07
2022-10-25T02:58:39.138Z,3.50
2022-10-25T03:01:08.213Z,2.90
2022-10-25T03:03:39.048Z,6.23
2022-10-25T03:06:08.254Z,5.50
2022-10-25T03:08:36.638Z,2.60
2022-10-25T03:11:05.882Z,5.07
2022-10-25T03:13:34.561Z,1.80
2022-10-25T03:16:03.565Z,4.00
2022-10-25T03:18:32.218Z,2.53
2022-10-25T03:21:04.278Z,3.43
2022-10-25T03:23:33.834Z,3.17
2022-10-25T03:26:02.723Z,5.30
2022-10-25T03:28:31.982Z,2.67
2022-10-25T03:31:01.065Z,5.60
2022-10-25T03:35:58.052Z,6.13
2022-10-25T03:38:28.072Z,1.97
2022-10-25T03:40:56.501Z,2.13
2022-10-25T03:43:25.104Z,7.40
2022-10-25T03:45:53.454Z,2.83
2022-10-25T03:48:21.780Z,3.40
2022-10-25T03:50:50.091Z,3.67
2022-10-25T03:53:18.849Z,2.40
2022-10-25T03:55:49.879Z,2.70
2022-10-25T03:58:19.719Z,2.10
2022-10-25T04:00:48.397Z,2.13
2022-10-25T04:03:17.085Z,1.90
2022-10-25T04:05:45.658Z,3.37
2022-10-25T04:08:14.001Z,2.83
2022-10-25T04:10:42.343Z,3.63
2022-10-25T04:13:12.538Z,3.63
2022-10-25T04:15:41.187Z,4.00
2022-10-25T04:18:09.550Z,3.03
2022-10-25T04:20:37.859Z,2.17
2022-10-25T04:23:06.252Z,3.00
2022-10-25T04:25:34.743Z,1.83
2022-10-25T04:28:03.576Z,2.33
2022-10-25T04:30:36.541Z,5.30
2022-10-25T04:33:07.226Z,5.73
2022-10-25T04:35:35.643Z,2.63
2022-10-25T04:38:04.114Z,1.57
2022-10-25T04:40:32.493Z,3.40
2022-10-25T04:43:02.521Z,3.87
2022-10-25T04:45:32.405Z,4.20
2022-10-25T04:48:01.724Z,3.70
2022-10-25T04:50:30.238Z,4.07
2022-10-25T04:52:58.804Z,4.80
2022-10-25T04:55:27.124Z,2.23
2022-10-25T04:57:55.696Z,2.80
2022-10-25T05:00:24.421Z,5.67
2022-10-25T05:02:54.638Z,3.57
2022-10-25T05:05:25.009Z,2.60
2022-10-25T05:07:53.681Z,2.80
2022-10-25T05:10:22.307Z,5.93
2022-10-25T05:12:50.665Z,2.90
2022-10-25T05:15:19.195Z,4.40
2022-10-25T05:17:47.745Z,4.97
2022-10-25T05:20:17.952Z,5.03
2022-10-25T05:22:46.640Z,5.67
2022-10-25T05:25:15.104Z,3.40
2022-10-25T05:27:43.601Z,2.60
2022-10-25T05:30:13.392Z,4.30
2022-10-25T05:32:43.599Z,6.50
2022-10-25T05:35:11.891Z,3.83
2022-10-25T05:37:41.666Z,4.90
2022-10-25T05:40:11.369Z,7.03
2022-10-25T05:42:40.002Z,4.93
2022-10-25T05:45:09.197Z,3.43
2022-10-25T05:47:37.595Z,4.67
2022-10-25T05:50:06.559Z,3.77
2022-10-25T05:52:35.167Z,5.70
2022-10-25T05:55:05.874Z,4.63
2022-10-25T05:57:34.726Z,4.70
2022-10-25T06:00:03.158Z,8.07
2022-10-25T06:02:35.458Z,6.03
2022-10-25T06:05:03.945Z,4.70
2022-10-25T06:07:32.418Z,4.60
2022-10-25T06:10:00.966Z,2.37
2022-10-25T06:12:30.923Z,5.47
2022-10-25T06:14:59.280Z,3.57
2022-10-25T06:17:27.733Z,6.17
2022-10-25T06:19:56.052Z,4.37
2022-10-25T06:22:26.117Z,5.23
2022-10-25T06:24:54.767Z,4.17
2022-10-25T06:27:49.254Z,5.83
2022-10-25T06:30:17.640Z,6.27
2022-10-25T06:32:46.235Z,3.80
2022-10-25T06:35:14.719Z,4.33
2022-10-25T06:37:42.873Z,4.63
2022-10-25T06:40:12.086Z,5.57
2022-10-25T06:42:40.201Z,5.37
2022-10-25T06:45:10.589Z,11.37
2022-10-25T06:47:38.755Z,5.33
2022-10-25T06:52:36.582Z,4.93
2022-10-25T06:55:05.108Z,6.80
2022-10-25T06:57:33.226Z,11.00
2022-10-25T07:00:02.139Z,2.90
2022-10-25T07:02:31.710Z,7.00
2022-10-25T07:04:59.897Z,4.90
2022-10-25T07:07:27.992Z,6.57
2022-10-25T07:09:56.143Z,3.27
2022-10-25T07:12:24.239Z,5.70
2022-10-25T07:14:52.406Z,4.50
2022-10-25T07:17:20.521Z,5.17
2022-10-25T07:19:50.220Z,8.00
2022-10-25T07:22:18.362Z,4.20
2022-10-25T07:24:46.541Z,4.47
2022-10-25T07:27:14.700Z,6.80
2022-10-25T07:29:43.079Z,4.60
2022-10-25T07:32:41.378Z,5.67
2022-10-25T07:35:12.434Z,4.40
2022-10-25T07:37:41.166Z,5.33
2022-10-25T07:40:13.494Z,5.67
2022-10-25T07:42:41.637Z,9.93
2022-10-25T07:45:35.043Z,5.30
2022-10-25T07:48:03.255Z,4.30
2022-10-25T07:50:32.785Z,3.30
2022-10-25T07:53:00.885Z,9.07
2022-10-25T07:55:29.128Z,5.82
2022-10-25T07:58:01.362Z,5.00
2022-10-25T08:00:29.774Z,4.50
2022-10-25T08:02:58.014Z,4.05
2022-10-25T08:05:26.199Z,5.80
2022-10-25T08:07:55.873Z,3.78
2022-10-25T08:10:24.016Z,6.88
2022-10-25T08:12:52.559Z,7.15
2022-10-25T08:15:20.679Z,6.43
2022-10-25T08:17:49.174Z,4.05
2022-10-25T08:20:18.440Z,7.15
2022-10-25T08:22:46.580Z,5.88
2022-10-25T08:25:16.193Z,5.93
2022-10-25T08:27:44.629Z,4.70
2022-10-25T08:30:13.377Z,5.35
2022-10-25T08:32:41.508Z,7.22
2022-10-25T08:35:10.101Z,6.82
2022-10-25T08:37:38.190Z,5.10
2022-10-25T08:40:08.066Z,6.75
2022-10-25T08:42:51.116Z,7.43
2022-10-25T08:45:24.016Z,6.32
2022-10-25T08:47:54.815Z,6.10
2022-10-25T08:50:26.740Z,4.65
2022-10-25T08:52:58.929Z,4.15
2022-10-25T08:55:33.557Z,10.68
2022-10-25T08:58:09.448Z,7.03
2022-10-25T09:00:40.643Z,4.43
2022-10-25T09:03:15.648Z,5.53
2022-10-25T09:05:51.500Z,5.97
2022-10-25T09:08:37.701Z,5.95
2022-10-25T09:11:18.809Z,6.30
2022-10-25T09:13:54.011Z,4.65
2022-10-25T09:16:30.340Z,8.07
2022-10-25T09:18:58.688Z,6.68
2022-10-25T09:21:36.005Z,5.45
2022-10-25T09:24:13.280Z,7.05
2022-10-25T09:26:44.125Z,6.22
2022-10-25T09:29:19.870Z,5.07
2022-10-25T09:31:51.665Z,8.73
2022-10-25T09:34:22.605Z,6.65
2022-10-25T09:36:54.758Z,4.45
2022-10-25T09:39:36.881Z,7.63
2022-10-25T09:42:08.571Z,7.18
2022-10-25T09:45:06.782Z,4.55
2022-10-25T09:47:43.457Z,4.55
2022-10-25T09:50:19.380Z,5.32
2022-10-25T09:55:35.572Z,9.88
2022-10-25T09:58:03.845Z,4.90
2022-10-25T10:00:36.892Z,6.45
2022-10-25T10:03:05.657Z,4.63
2022-10-25T10:05:36.595Z,8.15
2022-10-25T10:08:04.906Z,3.08
2022-10-25T10:10:36.392Z,6.88
2022-10-25T10:13:07.532Z,7.25
2022-10-25T10:15:43.557Z,7.70
2022-10-25T10:18:29.847Z,4.80
2022-10-25T10:21:08.629Z,3.85
2022-10-25T10:23:46.289Z,6.25
2022-10-25T10:26:22.635Z,11.35
2022-10-25T10:29:03.363Z,9.77
2022-10-25T10:31:38.705Z,6.80
2022-10-25T10:34:23.981Z,5.45
2022-10-25T10:37:03.650Z,3.55
2022-10-25T10:39:32.846Z,7.68
2022-10-25T10:42:04.258Z,5.65
2022-10-25T10:44:38.493Z,5.85
2022-10-25T10:47:14.285Z,9.25
2022-10-25T10:49:44.072Z,6.18
2022-10-25T10:52:30.405Z,4.65
2022-10-25T10:55:01.090Z,5.13
2022-10-25T10:57:33.436Z,5.70
2022-10-25T11:00:02.475Z,4.72
2022-10-25T11:02:41.110Z,7.88
2022-10-25T11:05:25.396Z,4.22
2022-10-25T11:07:58.542Z,5.88
2022-10-25T11:10:29.669Z,5.90
2022-10-25T11:13:09.486Z,3.60
2022-10-25T11:16:12.979Z,5.35
2022-10-25T11:18:59.965Z,5.30
2022-10-25T11:22:06.889Z,5.22
2022-10-25T11:24:43.214Z,6.43
2022-10-25T11:27:20.250Z,4.78
2022-10-25T11:30:09.677Z,4.35
2022-10-25T11:33:14.475Z,2.75
2022-10-25T11:36:06.189Z,3.33
2022-10-25T11:38:46.203Z,5.82
2022-10-25T11:41:27.019Z,6.70
2022-10-25T11:44:21.173Z,4.90
2022-10-25T11:46:56.290Z,4.15
2022-10-25T11:49:45.896Z,5.50
2022-10-25T11:52:30.964Z,6.80
2022-10-25T11:55:10.561Z,7.35
2022-10-25T11:57:48.021Z,5.25
2022-10-25T12:00:19.629Z,4.28
2022-10-25T12:03:14.782Z,5.72
2022-10-25T12:05:51.575Z,4.72
2022-10-25T12:08:32.088Z,4.78
2022-10-25T12:11:04.863Z,2.55
2022-10-25T12:13:36.765Z,4.47
2022-10-25T12:16:13.566Z,5.22
2022-10-25T12:18:45.075Z,2.83
2022-10-25T12:21:19.346Z,7.47
2022-10-25T12:23:52.052Z,5.13
2022-10-25T12:26:26.972Z,4.10
2022-10-25T12:28:55.528Z,4.10
2022-10-25T12:31:27.458Z,5.20
2022-10-25T12:34:00.765Z,3.03
2022-10-25T12:36:33.000Z,5.00
2022-10-25T12:39:07.514Z,2.95
2022-10-25T12:41:39.062Z,4.53
2022-10-25T12:44:25.795Z,2.53
2022-10-25T12:47:05.323Z,3.42
2022-10-25T12:50:15.435Z,2.90
2022-10-25T12:52:58.169Z,3.15
2022-10-25T12:55:51.729Z,4.55
2022-10-25T12:58:35.047Z,5.15
2022-10-25T13:01:38.597Z,2.70
2022-10-25T13:04:45.181Z,2.92
2022-10-25T13:07:15.654Z,3.00
2022-10-25T13:09:44.394Z,3.30
2022-10-25T13:12:23.473Z,2.90
2022-10-25T13:14:54.703Z,4.03
2022-10-25T13:17:48.205Z,2.72
2022-10-25T13:20:49.166Z,3.15
2022-10-25T13:23:59.360Z,2.65
2022-10-25T13:26:31.980Z,4.05
2022-10-25T13:29:03.830Z,4.70
2022-10-25T13:31:58.717Z,1.65
2022-10-25T13:34:35.650Z,2.72
2022-10-25T13:37:06.678Z,2.83
2022-10-25T13:39:39.775Z,1.73
2022-10-25T13:42:24.729Z,3.50
2022-10-25T13:44:57.397Z,6.10
2022-10-25T13:47:41.118Z,2.38
2022-10-25T13:52:52.318Z,4.38
2022-10-25T13:55:23.936Z,4.20
2022-10-25T13:57:55.419Z,4.28
2022-10-25T14:00:35.407Z,5.35
2022-10-25T14:03:19.773Z,2.53
2022-10-25T14:06:13.892Z,3.92
2022-10-25T14:08:52.381Z,2.22
2022-10-25T14:11:24.954Z,3.38
2022-10-25T14:13:59.359Z,3.30
2022-10-25T14:16:32.864Z,3.17
2022-10-25T14:19:06.346Z,3.17
2022-10-25T14:21:35.012Z,3.40
2022-10-25T14:24:07.460Z,3.92
2022-10-25T14:26:35.950Z,3.33
2022-10-25T14:29:14.565Z,5.68
2022-10-25T14:32:35.094Z,3.72
2022-10-25T14:35:05.494Z,3.67
2022-10-25T14:37:34.062Z,3.42
2022-10-25T14:40:02.924Z,2.20
2022-10-25T14:42:31.259Z,6.78
2022-10-25T14:45:00.178Z,2.65
2022-10-25T14:47:30.887Z,2.90
2022-10-25T14:50:00.156Z,7.03
2022-10-25T14:52:32.173Z,3.83
2022-10-25T14:55:04.166Z,3.40
2022-10-25T14:57:33.333Z,3.67
2022-10-25T15:00:03.370Z,4.35
2022-10-25T15:02:34.921Z,5.22
2022-10-25T15:05:05.038Z,4.25
2022-10-25T15:07:39.305Z,5.55
2022-10-25T15:10:08.565Z,5.20
2022-10-25T15:12:36.749Z,5.38
2022-10-25T15:15:32.349Z,6.07
2022-10-25T15:18:00.530Z,5.55
2022-10-25T15:20:30.969Z,4.03
2022-10-25T15:23:06.074Z,4.70
2022-10-25T15:25:38.766Z,3.63
2022-10-25T15:28:11.291Z,4.80
2022-10-25T15:30:42.860Z,5.30
2022-10-25T15:33:17.018Z,3.30
2022-10-25T15:35:50.853Z,4.75
2022-10-25T15:38:20.864Z,5.38
2022-10-25T15:40:50.323Z,3.58
2022-10-25T15:43:18.541Z,4.40
2022-10-25T15:45:47.100Z,6.28
2022-10-25T15:48:17.645Z,4.50
2022-10-25T15:50:49.070Z,4.18
2022-10-25T15:53:24.295Z,4.78
2022-10-25T15:56:22.470Z,6.38
2022-10-25T15:58:51.243Z,4.95
2022-10-25T16:01:19.930Z,5.82
2022-10-25T16:03:48.281Z,4.53
2022-10-25T16:06:16.444Z,6.80
2022-10-25T16:08:46.001Z,5.18
2022-10-25T16:11:17.482Z,8.80
2022-10-25T16:13:47.893Z,7.05
2022-10-25T16:16:39.425Z,4.60
2022-10-25T16:19:14.746Z,4.63
2022-10-25T16:21:42.970Z,10.07
2022-10-25T16:24:13.311Z,6.32
2022-10-25T16:26:44.141Z,6.83
2022-10-25T16:29:16.480Z,4.00
2022-10-25T16:31:44.964Z,6.40
2022-10-25T16:34:15.444Z,7.37
2022-10-25T16:36:43.664Z,9.05
2022-10-25T16:39:14.028Z,8.93
2022-10-25T16:41:44.490Z,7.27
2022-10-25T16:44:13.476Z,11.30
2022-10-25T16:46:41.612Z,12.27
2022-10-25T16:49:10.183Z,9.63
2022-10-25T16:51:39.312Z,8.67
2022-10-25T16:54:08.017Z,9.07
2022-10-25T16:56:37.601Z,8.20
2022-10-25T16:59:05.660Z,10.33
2022-10-25T17:01:38.974Z,6.80
2022-10-25T17:04:11.787Z,7.43
2022-10-25T17:07:37.053Z,11.63
2022-10-25T17:10:05.697Z,8.33
2022-10-25T17:12:35.162Z,14.10
2022-10-25T17:15:03.306Z,12.73
2022-10-25T17:17:31.478Z,8.83
2022-10-25T17:19:59.866Z,10.30
2022-10-25T17:22:28.729Z,7.10
2022-10-25T17:25:26.860Z,8.63
2022-10-25T17:27:56.719Z,9.73
2022-10-25T17:30:24.859Z,15.07
2022-10-25T17:32:53.104Z,12.07
2022-10-25T17:35:28.654Z,13.70
2022-10-25T17:37:58.349Z,17.03
2022-10-25T17:40:26.432Z,12.87
2022-10-25T17:43:22.432Z,17.53
2022-10-25T17:45:51.192Z,12.03
2022-10-25T17:48:19.322Z,12.47
2022-10-25T17:51:16.972Z,12.60
2022-10-25T17:54:16.658Z,13.93
2022-10-25T17:56:44.770Z,12.40
2022-10-25T17:59:14.233Z,15.57
2022-10-25T18:01:42.541Z,12.37
2022-10-25T18:04:10.716Z,10.37
2022-10-25T18:06:39.027Z,12.57
2022-10-25T18:09:07.192Z,13.90
2022-10-25T18:11:35.749Z,18.27
2022-10-25T18:14:04.070Z,16.10
2022-10-25T18:16:34.162Z,12.63
2022-10-25T18:19:04.344Z,12.93
2022-10-25T18:21:33.083Z,13.57
2022-10-25T18:24:02.929Z,13.83
2022-10-25T18:26:31.153Z,16.37
2022-10-25T18:28:59.553Z,15.10
2022-10-25T18:31:28.145Z,12.87
2022-10-25T18:33:59.157Z,12.60
2022-10-25T18:36:28.400Z,14.33
2022-10-25T18:38:56.851Z,12.77
2022-10-25T18:41:26.679Z,13.07
2022-10-25T18:43:55.774Z,10.13
2022-10-25T18:46:24.825Z,11.80
2022-10-25T18:48:53.927Z,16.50
2022-10-25T18:51:26.500Z,13.97
2022-10-25T18:53:55.047Z,13.07
2022-10-25T18:56:23.501Z,16.70
2022-10-25T18:58:51.995Z,16.67
2022-10-25T19:01:24.328Z,17.33
2022-10-25T19:04:18.109Z,16.07
2022-10-25T19:06:47.682Z,13.17
2022-10-25T19:09:15.862Z,10.63
2022-10-25T19:11:44.036Z,13.13
2022-10-25T19:14:12.232Z,13.30
2022-10-25T19:16:41.874Z,14.43
2022-10-25T19:19:11.908Z,13.10
2022-10-25T19:21:41.518Z,17.20
2022-10-25T19:24:15.815Z,13.53
2022-10-25T19:26:44.772Z,13.20
2022-10-25T19:29:13.083Z,14.97
2022-10-25T19:31:44.677Z,18.87
2022-10-25T19:34:12.962Z,13.60
2022-10-25T19:36:41.188Z,16.90
2022-10-25T19:39:11.967Z,12.80
2022-10-25T19:41:41.310Z,15.00
2022-10-25T19:44:10.654Z,13.10
2022-10-25T19:46:38.980Z,13.73
2022-10-25T19:49:07.360Z,19.50
2022-10-25T19:51:35.617Z,13.83
2022-10-25T19:54:03.897Z,14.13
2022-10-25T19:56:35.427Z,17.30
2022-10-25T19:59:03.708Z,14.60
2022-10-25T20:01:32.068Z,18.20
2022-10-25T20:04:00.723Z,15.03
2022-10-25T20:06:30.882Z,14.10
2022-10-25T20:09:00.658Z,20.17
2022-10-25T20:11:31.339Z,14.53
2022-10-25T20:14:02.759Z,15.47
2022-10-25T20:16:31.759Z,13.07
2022-10-25T20:19:01.584Z,16.30
2022-10-25T20:21:32.678Z,13.47
2022-10-25T20:24:02.946Z,16.20
2022-10-25T20:26:32.871Z,14.10
2022-10-25T20:29:04.340Z,16.20
2022-10-25T20:31:33.772Z,16.43
2022-10-25T20:34:02.587Z,15.53
2022-10-25T20:36:31.535Z,16.40
2022-10-25T20:38:59.686Z,14.20
2022-10-25T20:41:30.145Z,15.67
2022-10-25T20:44:01.052Z,14.53
2022-10-25T20:46:31.087Z,21.17
2022-10-25T20:49:00.124Z,13.20
2022-10-25T20:51:28.890Z,14.60
2022-10-25T20:53:57.705Z,17.23
2022-10-25T20:56:26.248Z,22.50
2022-10-25T20:58:54.452Z,13.43
2022-10-25T21:01:22.716Z,14.60
2022-10-25T21:03:54.003Z,13.97
2022-10-25T21:06:22.321Z,16.93
2022-10-25T21:08:50.595Z,15.93
2022-10-25T21:11:18.932Z,12.97
2022-10-25T21:13:47.146Z,18.43
2022-10-25T21:16:17.114Z,15.60
2022-10-25T21:18:45.678Z,12.67
2022-10-25T21:21:18.979Z,13.80
2022-10-25T21:23:47.349Z,10.93
2022-10-25T21:26:15.970Z,12.80
2022-10-25T21:28:44.446Z,14.77
2022-10-25T21:31:14.268Z,16.73
2022-10-25T21:33:49.709Z,14.53
2022-10-25T21:36:21.932Z,14.73
2022-10-25T21:38:50.426Z,15.90
2022-10-25T21:41:20.927Z,13.77
2022-10-25T21:43:50.860Z,14.63
2022-10-25T21:46:20.829Z,16.80
2022-10-25T21:48:50.624Z,13.97
2022-10-25T21:51:20.874Z,14.87
2022-10-25T21:53:49.329Z,12.47
2022-10-25T21:56:19.917Z,11.10
2022-10-25T21:58:48.995Z,15.03
2022-10-25T22:01:19.576Z,12.13
2022-10-25T22:03:47.919Z,10.90
2022-10-25T22:06:18.330Z,11.50
2022-10-25T22:08:48.524Z,11.47
2022-10-25T22:11:19.742Z,12.77
2022-10-25T22:13:48.773Z,13.17
2022-10-25T22:16:18.983Z,12.27
2022-10-25T22:18:50.786Z,9.57
2022-10-25T22:21:19.289Z,14.80
2022-10-25T22:23:49.220Z,10.47
2022-10-25T22:26:19.897Z,12.50
2022-10-25T22:28:52.101Z,14.83
2022-10-25T22:31:21.353Z,14.43
2022-10-25T22:33:54.572Z,10.33
2022-10-25T22:36:24.563Z,10.70
2022-10-25T22:38:54.566Z,12.27
2022-10-25T22:41:25.206Z,14.47
2022-10-25T22:43:53.798Z,10.93
2022-10-25T22:46:25.370Z,11.07
2022-10-25T22:48:55.326Z,7.47
2022-10-25T22:51:24.608Z,10.67
2022-10-25T22:53:54.397Z,12.80
2022-10-25T22:56:26.445Z,14.20
2022-10-25T22:58:56.038Z,12.13
2022-10-25T23:01:26.099Z,9.73
2022-10-25T23:03:55.952Z,10.93
2022-10-25T23:06:26.227Z,14.00
2022-10-25T23:08:56.871Z,8.30
2022-10-25T23:11:26.913Z,8.60
2022-10-25T23:13:55.267Z,13.20
2022-10-25T23:16:23.764Z,9.37
2022-10-25T23:18:52.169Z,12.07
2022-10-25T23:21:23.308Z,12.47
2022-10-25T23:23:52.901Z,10.57
2022-10-25T23:26:24.363Z,8.77
2022-10-25T23:28:53.001Z,12.30
2022-10-25T23:31:21.307Z,9.80
2022-10-25T23:33:53.091Z,9.77
2022-10-25T23:36:23.105Z,13.53
2022-10-25T23:38:52.997Z,10.97
2022-10-25T23:41:23.729Z,12.37
2022-10-25T23:43:52.134Z,9.17
2022-10-25T23:46:20.469Z,9.60
2022-10-25T23:48:48.835Z,9.93
2022-10-25T23:51:19.120Z,11.30
2022-10-25T23:53:48.549Z,9.17
2022-10-25T23:56:16.945Z,12.00
2022-10-25T23:58:50.393Z,14.97
